Time,TemperatureF,DewpointF,PressureIn,WindDirection,WindDirectionDegrees,WindSpeedMPH,WindSpeedGustMPH,Humidity,HourlyPrecipIn,Conditions,Clouds,dailyrainin,SoftwareType,DateUTC
2013-01-13 00:00:00,3.6,-0.4,30.30,NE,40,0.0,2.0,83,0.00,,SKC,0.00,VWS V14.00,2013-01-13 07:00:00,
2013-01-13 00:04:00,3.5,-0.5,30.30,NE,40,0.0,0.0,83,0.00,,SKC,0.00,VWS V14.00,2013-01-13 07:04:00,
2013-01-13 00:09:00,3.2,-0.8,30.30,NE,40,0.0,1.0,83,0.00,,SKC,0.00,VWS V14.00,2013-01-13 07:09:00,
2013-01-13 00:14:00,3.3,-0.4,30.30,NE,40,0.0,1.0,84,0.00,,SKC,0.00,VWS V14.00,2013-01-13 07:14:00,
2013-01-13 00:19:00,3.6,0.4,30.30,NE,40,0.0,1.0,86,0.00,,SKC,0.00,VWS V14.00,2013-01-13 07:19:00,
2013-01-13 00:25:00,4.0,0.8,30.30,NE,40,0.0,1.0,86,0.00,,SKC,0.00,VWS V14.00,2013-01-13 07:25:00,
2013-01-13 00:30:00,4.1,0.6,30.30,NE,40,0.0,1.0,85,0.00,,SKC,0.00,VWS V14.00,2013-01-13 07:30:00,
2013-01-13 00:36:00,4.2,0.7,30.30,NE,40,0.0,0.0,85,0.00,,SKC,0.00,VWS V14.00,2013-01-13 07:36:00,
2013-01-13 00:41:00,4.4,1.1,30.30,NE,40,0.0,0.0,86,0.00,,SKC,0.00,VWS V14.00,2013-01-13 07:41:00,
2013-01-13 00:46:00,4.5,1.0,30.30,NE,40,0.0,0.0,85,0.00,,SKC,0.00,VWS V14.00,2013-01-13 07:46:00,
2013-01-13 00:51:00,4.5,1.0,30.31,NE,40,0.0,0.0,85,0.00,,SKC,0.00,VWS V14.00,2013-01-13 07:51:00,
2013-01-13 00:56:00,4.7,1.4,30.31,NE,40,0.0,0.0,86,0.00,,SKC,0.00,VWS V14.00,2013-01-13 07:56:00,
2013-01-13 01:00:00,4.8,1.3,30.31,NE,40,0.0,0.0,85,0.00,,SKC,0.00,VWS V14.00,2013-01-13 08:00:00,
2013-01-13 01:01:00,4.8,1.3,30.31,NE,40,0.0,0.0,85,0.00,,SKC,0.00,VWS V14.00,2013-01-13 08:01:00,
2013-01-13 01:07:00,4.7,0.9,30.31,NE,40,0.0,0.0,84,0.00,,SKC,0.00,VWS V14.00,2013-01-13 08:07:00,
2013-01-13 01:12:00,4.6,0.8,30.31,NE,40,0.0,0.0,84,0.00,,SKC,0.00,VWS V14.00,2013-01-13 08:12:00,
2013-01-13 01:17:00,4.4,0.6,30.31,NE,40,0.0,0.0,84,0.00,,SKC,0.00,VWS V14.00,2013-01-13 08:17:00,
2013-01-13 01:22:00,4.4,0.9,30.32,NE,40,0.0,0.0,85,0.00,,SKC,0.00,VWS V14.00,2013-01-13 08:22:00,
2013-01-13 01:27:00,4.3,0.6,30.32,NE,40,0.0,0.0,84,0.00,,SKC,0.00,VWS V14.00,2013-01-13 08:27:00,
2013-01-13 01:30:00,4.2,0.4,30.32,NE,40,0.0,0.0,84,0.00,,SKC,0.00,VWS V14.00,2013-01-13 08:30:00,
2013-01-13 01:33:00,4.2,0.7,30.32,NE,40,0.0,0.0,85,0.00,,SKC,0.00,VWS V14.00,2013-01-13 08:33:00,
2013-01-13 01:38:00,4.1,0.3,30.32,NE,40,0.0,0.0,84,0.00,,SKC,0.00,VWS V14.00,2013-01-13 08:38:00,
2013-01-13 01:43:00,4.1,0.6,30.32,NE,40,0.0,0.0,85,0.00,,SKC,0.00,VWS V14.00,2013-01-13 08:43:00,
2013-01-13 01:48:00,4.0,0.5,30.32,NE,40,0.0,0.0,85,0.00,,SKC,0.00,VWS V14.00,2013-01-13 08:48:00,
2013-01-13 01:53:00,3.9,0.4,30.32,NE,40,0.0,0.0,85,0.00,,SKC,0.00,VWS V14.00,2013-01-13 08:53:00,
2013-01-13 01:59:00,4.0,0.8,30.32,NE,40,0.0,0.0,86,0.00,,SKC,0.00,VWS V14.00,2013-01-13 08:59:00,
2013-01-13 02:00:00,3.9,0.4,30.32,NE,40,0.0,0.0,85,0.00,,SKC,0.00,VWS V14.00,2013-01-13 09:00:00,
2013-01-13 02:04:00,3.8,0.1,30.32,NE,40,0.0,0.0,84,0.00,,SKC,0.00,VWS V14.00,2013-01-13 09:04:00,
2013-01-13 02:09:00,3.6,-0.1,30.32,NE,40,0.0,1.0,84,0.00,,SKC,0.00,VWS V14.00,2013-01-13 09:09:00,
2013-01-13 02:14:00,3.5,-0.2,30.32,NE,40,0.0,1.0,84,0.00,,SKC,0.00,VWS V14.00,2013-01-13 09:14:00,
2013-01-13 02:19:00,3.4,-0.1,30.32,NE,40,0.0,1.0,85,0.00,,SKC,0.00,VWS V14.00,2013-01-13 09:19:00,
2013-01-13 02:25:00,3.7,0.5,30.32,NE,40,0.0,2.0,86,0.00,,SKC,0.00,VWS V14.00,2013-01-13 09:25:00,
2013-01-13 02:30:00,3.7,0.2,30.32,NE,40,0.0,2.0,85,0.00,,SKC,0.00,VWS V14.00,2013-01-13 09:30:00,
2013-01-13 02:35:00,3.7,0.2,30.32,NE,40,0.0,0.0,85,0.00,,SKC,0.00,VWS V14.00,2013-01-13 09:35:00,
2013-01-13 02:40:00,3.6,0.1,30.32,NE,40,0.0,0.0,85,0.00,,SKC,0.00,VWS V14.00,2013-01-13 09:40:00,
2013-01-13 02:45:00,3.4,-0.1,30.32,NE,40,0.0,0.0,85,0.00,,SKC,0.00,VWS V14.00,2013-01-13 09:45:00,
2013-01-13 02:51:00,3.5,0.3,30.32,NE,40,0.0,0.0,86,0.00,,SKC,0.00,VWS V14.00,2013-01-13 09:51:00,
2013-01-13 02:56:00,3.7,0.5,30.32,NE,40,0.0,0.0,86,0.00,,SKC,0.00,VWS V14.00,2013-01-13 09:56:00,
2013-01-13 03:00:00,3.7,0.2,30.32,NE,40,0.0,0.0,85,0.00,,SKC,0.00,VWS V14.00,2013-01-13 10:00:00,
2013-01-13 03:01:00,3.7,0.5,30.32,NE,40,0.0,0.0,86,0.00,,SKC,0.00,VWS V14.00,2013-01-13 10:01:00,
2013-01-13 03:06:00,3.6,0.1,30.32,NE,40,0.0,0.0,85,0.00,,SKC,0.00,VWS V14.00,2013-01-13 10:06:00,
2013-01-13 03:11:00,3.5,0.0,30.32,NE,40,0.0,0.0,85,0.00,,SKC,0.00,VWS V14.00,2013-01-13 10:11:00,
2013-01-13 03:17:00,3.5,0.0,30.32,NE,40,0.0,0.0,85,0.00,,SKC,0.00,VWS V14.00,2013-01-13 10:17:00,
2013-01-13 03:22:00,3.5,0.3,30.32,NE,40,0.0,0.0,86,0.00,,SKC,0.00,VWS V14.00,2013-01-13 10:22:00,
2013-01-13 03:27:00,3.6,0.4,30.32,NE,40,0.0,0.0,86,0.00,,SKC,0.00,VWS V14.00,2013-01-13 10:27:00,
2013-01-13 03:30:00,3.6,0.4,30.31,NE,40,0.0,0.0,86,0.00,,SKC,0.00,VWS V14.00,2013-01-13 10:30:00,
2013-01-13 03:32:00,3.6,0.4,30.31,NE,40,0.0,0.0,86,0.00,,SKC,0.00,VWS V14.00,2013-01-13 10:32:00,
2013-01-13 03:38:00,3.7,0.9,30.31,NE,40,0.0,0.0,88,0.00,,SKC,0.00,VWS V14.00,2013-01-13 10:38:00,
2013-01-13 03:43:00,3.7,0.7,30.31,NE,40,0.0,0.0,87,0.00,,SKC,0.00,VWS V14.00,2013-01-13 10:43:00,
2013-01-13 03:48:00,3.7,0.7,30.31,NE,40,0.0,0.0,87,0.00,,SKC,0.00,VWS V14.00,2013-01-13 10:48:00,
2013-01-13 03:53:00,3.6,0.4,30.31,NE,40,0.0,0.0,86,0.00,,SKC,0.00,VWS V14.00,2013-01-13 10:53:00,
2013-01-13 03:58:00,3.7,0.9,30.31,NE,40,0.0,0.0,88,0.00,,SKC,0.00,VWS V14.00,2013-01-13 10:58:00,
2013-01-13 04:00:00,3.7,0.7,30.30,NE,40,0.0,0.0,87,0.00,,SKC,0.00,VWS V14.00,2013-01-13 11:00:00,
2013-01-13 04:04:00,3.7,0.7,30.30,NE,40,0.0,0.0,87,0.00,,SKC,0.00,VWS V14.00,2013-01-13 11:04:00,
2013-01-13 04:09:00,3.6,0.4,30.30,NE,40,0.0,0.0,86,0.00,,SKC,0.00,VWS V14.00,2013-01-13 11:09:00,
2013-01-13 04:14:00,3.5,0.3,30.30,NE,40,0.0,0.0,86,0.00,,SKC,0.00,VWS V14.00,2013-01-13 11:14:00,
2013-01-13 04:19:00,3.3,-0.2,30.30,NE,40,0.0,0.0,85,0.00,,SKC,0.00,VWS V14.00,2013-01-13 11:19:00,
2013-01-13 04:24:00,3.1,-0.4,30.30,NE,40,0.0,0.0,85,0.00,,SKC,0.00,VWS V14.00,2013-01-13 11:24:00,
2013-01-13 04:30:00,2.9,-0.6,30.30,NE,40,0.0,0.0,85,0.00,,SKC,0.00,VWS V14.00,2013-01-13 11:30:00,
2013-01-13 04:35:00,2.9,-0.6,30.30,NE,40,0.0,0.0,85,0.00,,SKC,0.00,VWS V14.00,2013-01-13 11:35:00,
2013-01-13 04:40:00,2.8,-0.7,30.30,NE,40,0.0,0.0,85,0.00,,SKC,0.00,VWS V14.00,2013-01-13 11:40:00,
2013-01-13 04:45:00,2.7,-0.8,30.30,NE,40,0.0,0.0,85,0.00,,SKC,0.00,VWS V14.00,2013-01-13 11:45:00,
2013-01-13 04:50:00,2.6,-0.9,30.30,NE,40,0.0,0.0,85,0.00,,SKC,0.00,VWS V14.00,2013-01-13 11:50:00,
2013-01-13 04:56:00,2.4,-1.1,30.31,NE,40,0.0,0.0,85,0.00,,SKC,0.00,VWS V14.00,2013-01-13 11:56:00,
2013-01-13 05:00:00,2.2,-1.5,30.31,NE,40,0.0,0.0,84,0.00,,SKC,0.00,VWS V14.00,2013-01-13 12:00:00,
2013-01-13 05:01:00,2.2,-1.5,30.31,NE,40,0.0,0.0,84,0.00,,SKC,0.00,VWS V14.00,2013-01-13 12:01:00,
2013-01-13 05:06:00,2.0,-1.5,30.31,NE,40,0.0,0.0,85,0.00,,SKC,0.00,VWS V14.00,2013-01-13 12:06:00,
2013-01-13 05:11:00,1.9,-1.6,30.31,NE,40,0.0,0.0,85,0.00,,SKC,0.00,VWS V14.00,2013-01-13 12:11:00,
2013-01-13 05:16:00,1.9,-1.6,30.32,NE,40,0.0,0.0,85,0.00,,SKC,0.00,VWS V14.00,2013-01-13 12:16:00,
2013-01-13 05:22:00,2.0,-1.2,30.32,NE,40,0.0,0.0,86,0.00,,SKC,0.00,VWS V14.00,2013-01-13 12:22:00,
2013-01-13 05:27:00,2.0,-1.2,30.32,NE,40,0.0,0.0,86,0.00,,SKC,0.00,VWS V14.00,2013-01-13 12:27:00,
2013-01-13 05:30:00,2.0,-1.2,30.32,NE,40,0.0,0.0,86,0.00,,SKC,0.00,VWS V14.00,2013-01-13 12:30:00,
2013-01-13 05:32:00,2.0,-1.2,30.32,NE,40,0.0,0.0,86,0.00,,SKC,0.00,VWS V14.00,2013-01-13 12:32:00,
2013-01-13 05:37:00,2.1,-1.1,30.32,NE,40,0.0,0.0,86,0.00,,SKC,0.00,VWS V14.00,2013-01-13 12:37:00,
2013-01-13 05:42:00,2.0,-1.5,30.32,NE,40,0.0,1.0,85,0.00,,SKC,0.00,VWS V14.00,2013-01-13 12:42:00,
2013-01-13 05:48:00,2.1,-1.1,30.32,NE,40,0.0,1.0,86,0.00,,SKC,0.00,VWS V14.00,2013-01-13 12:48:00,
2013-01-13 05:53:00,2.3,-0.7,30.32,NE,40,0.0,1.0,87,0.00,,SKC,0.00,VWS V14.00,2013-01-13 12:53:00,
2013-01-13 05:58:00,2.4,-0.8,30.32,NE,40,0.0,1.0,86,0.00,,SKC,0.00,VWS V14.00,2013-01-13 12:58:00,
2013-01-13 06:00:00,2.4,-0.8,30.32,NE,40,0.0,1.0,86,0.00,,SKC,0.00,VWS V14.00,2013-01-13 13:00:00,
2013-01-13 06:03:00,2.4,-0.8,30.32,NE,40,0.0,0.0,86,0.00,,SKC,0.00,VWS V14.00,2013-01-13 13:03:00,
2013-01-13 06:08:00,2.4,-0.8,30.32,NE,40,0.0,0.0,86,0.00,,SKC,0.00,VWS V14.00,2013-01-13 13:08:00,
2013-01-13 06:14:00,2.4,-0.8,30.33,NE,40,0.0,0.0,86,0.00,,SKC,0.00,VWS V14.00,2013-01-13 13:14:00,
2013-01-13 06:19:00,2.4,-0.8,30.33,NE,40,0.0,0.0,86,0.00,,SKC,0.00,VWS V14.00,2013-01-13 13:19:00,
2013-01-13 06:24:00,2.4,-1.1,30.33,NE,40,0.0,0.0,85,0.00,,SKC,0.00,VWS V14.00,2013-01-13 13:24:00,
2013-01-13 06:29:00,2.5,-0.7,30.33,NE,40,0.0,0.0,86,0.00,,SKC,0.00,VWS V14.00,2013-01-13 13:29:00,
2013-01-13 06:30:00,2.4,-0.8,30.33,NE,40,0.0,0.0,86,0.00,,SKC,0.00,VWS V14.00,2013-01-13 13:30:00,
2013-01-13 06:34:00,2.5,-0.7,30.34,NE,40,0.0,0.0,86,0.00,,SKC,0.00,VWS V14.00,2013-01-13 13:34:00,
2013-01-13 06:40:00,2.6,-0.6,30.33,NE,40,0.0,0.0,86,0.00,,SKC,0.00,VWS V14.00,2013-01-13 13:40:00,
2013-01-13 06:45:00,3.2,0.7,30.33,NE,40,0.0,0.0,89,0.00,,SKC,0.00,VWS V14.00,2013-01-13 13:45:00,
2013-01-13 06:50:00,3.2,0.0,30.33,NE,40,0.0,1.0,86,0.00,,SKC,0.00,VWS V14.00,2013-01-13 13:50:00,
2013-01-13 06:55:00,2.8,-0.7,30.34,NE,40,0.0,1.0,85,0.00,,SKC,0.00,VWS V14.00,2013-01-13 13:55:00,
2013-01-13 07:00:00,2.6,-0.6,30.34,NE,40,0.0,1.0,86,0.00,,SKC,0.00,VWS V14.00,2013-01-13 14:00:00,
2013-01-13 07:01:00,2.6,-0.6,30.34,NE,40,0.0,1.0,86,0.00,,SKC,0.00,VWS V14.00,2013-01-13 14:01:00,
2013-01-13 07:06:00,2.6,-0.6,30.34,NE,40,0.0,0.0,86,0.00,,SKC,0.00,VWS V14.00,2013-01-13 14:06:00,
2013-01-13 07:11:00,2.7,-0.5,30.34,NE,40,0.0,0.0,86,0.00,,SKC,0.00,VWS V14.00,2013-01-13 14:11:00,
2013-01-13 07:16:00,2.6,-0.9,30.34,NE,40,0.0,0.0,85,0.00,,SKC,0.00,VWS V14.00,2013-01-13 14:16:00,
2013-01-13 07:22:00,2.6,-0.6,30.34,NE,40,0.0,0.0,86,0.00,,SKC,0.00,VWS V14.00,2013-01-13 14:22:00,
2013-01-13 07:27:00,2.6,-0.6,30.34,NE,40,0.0,0.0,86,0.00,,SKC,0.00,VWS V14.00,2013-01-13 14:27:00,
2013-01-13 07:30:00,2.6,-0.6,30.34,NE,40,0.0,0.0,86,0.00,,SKC,0.00,VWS V14.00,2013-01-13 14:30:00,
2013-01-13 07:32:00,2.6,-0.6,30.34,NE,40,0.0,0.0,86,0.00,,SKC,0.00,VWS V14.00,2013-01-13 14:32:00,
2013-01-13 07:37:00,2.6,-0.6,30.34,NE,40,0.0,0.0,86,0.00,,SKC,0.00,VWS V14.00,2013-01-13 14:37:00,
2013-01-13 07:43:00,2.5,-1.0,30.35,NE,40,0.0,0.0,85,0.00,,SKC,0.00,VWS V14.00,2013-01-13 14:43:00,
2013-01-13 07:48:00,2.6,-0.6,30.34,NE,40,0.0,0.0,86,0.00,,SKC,0.00,VWS V14.00,2013-01-13 14:48:00,
2013-01-13 07:53:00,2.6,-0.6,30.35,NE,40,0.0,0.0,86,0.00,,SKC,0.00,VWS V14.00,2013-01-13 14:53:00,
2013-01-13 07:58:00,2.7,-0.5,30.35,NE,40,0.0,0.0,86,0.00,,SKC,0.00,VWS V14.00,2013-01-13 14:58:00,
2013-01-13 08:00:00,2.7,-0.5,30.35,NE,40,0.0,0.0,86,0.00,,SKC,0.00,VWS V14.00,2013-01-13 15:00:00,
2013-01-13 08:04:00,2.8,-0.4,30.35,NE,40,0.0,0.0,86,0.00,,SKC,0.00,VWS V14.00,2013-01-13 15:04:00,
2013-01-13 08:09:00,2.8,-0.4,30.35,NE,40,0.0,0.0,86,0.00,,SKC,0.00,VWS V14.00,2013-01-13 15:09:00,
2013-01-13 08:14:00,2.7,-0.8,30.35,NE,40,0.0,0.0,85,0.00,,SKC,0.00,VWS V14.00,2013-01-13 15:14:00,
2013-01-13 08:19:00,2.6,-0.9,30.35,NE,40,0.0,0.0,85,0.00,,SKC,0.00,VWS V14.00,2013-01-13 15:19:00,
2013-01-13 08:25:00,2.6,-0.9,30.35,NE,40,0.0,0.0,85,0.00,,SKC,0.00,VWS V14.00,2013-01-13 15:25:00,
2013-01-13 08:30:00,2.6,-0.6,30.35,NE,40,0.0,0.0,86,0.00,,SKC,0.00,VWS V14.00,2013-01-13 15:30:00,
2013-01-13 08:35:00,2.7,-0.5,30.35,NE,40,0.0,0.0,86,0.00,,SKC,0.00,VWS V14.00,2013-01-13 15:35:00,
2013-01-13 08:40:00,2.9,-0.3,30.35,NE,40,0.0,0.0,86,0.00,,SKC,0.00,VWS V14.00,2013-01-13 15:40:00,
2013-01-13 08:46:00,3.2,0.2,30.35,NE,40,0.0,0.0,87,0.00,,SKC,0.00,VWS V14.00,2013-01-13 15:46:00,
2013-01-13 08:51:00,3.5,0.5,30.35,NE,40,0.0,0.0,87,0.00,,SKC,0.00,VWS V14.00,2013-01-13 15:51:00,
2013-01-13 08:56:00,3.7,0.5,30.35,NE,40,0.0,0.0,86,0.00,,SKC,0.00,VWS V14.00,2013-01-13 15:56:00,
2013-01-13 09:00:00,3.8,0.3,30.35,NE,40,0.0,0.0,85,0.00,,SKC,0.00,VWS V14.00,2013-01-13 16:00:00,
2013-01-13 09:01:00,3.8,0.3,30.35,NE,40,0.0,0.0,85,0.00,,SKC,0.00,VWS V14.00,2013-01-13 16:01:00,
2013-01-13 09:07:00,4.0,0.8,30.35,NE,40,0.0,0.0,86,0.00,,SKC,0.00,VWS V14.00,2013-01-13 16:07:00,
2013-01-13 09:12:00,4.1,0.9,30.35,NE,40,0.0,1.0,86,0.00,,SKC,0.00,VWS V14.00,2013-01-13 16:12:00,
2013-01-13 09:17:00,4.3,1.0,30.35,NE,40,0.0,1.0,86,0.00,,SKC,0.00,VWS V14.00,2013-01-13 16:17:00,
2013-01-13 09:22:00,4.4,1.1,30.35,NE,40,0.0,1.0,86,0.00,,SKC,0.00,VWS V14.00,2013-01-13 16:22:00,
2013-01-13 09:28:00,4.5,1.2,30.35,NE,40,0.0,1.0,86,0.00,,SKC,0.00,VWS V14.00,2013-01-13 16:28:00,
2013-01-13 09:30:00,4.6,1.3,30.35,NE,40,0.0,1.0,86,0.00,,SKC,0.00,VWS V14.00,2013-01-13 16:30:00,
2013-01-13 09:33:00,4.7,1.4,30.35,NE,40,0.0,0.0,86,0.00,,SKC,0.00,VWS V14.00,2013-01-13 16:33:00,
2013-01-13 09:38:00,5.1,2.1,30.35,NE,40,0.0,0.0,87,0.00,,SKC,0.00,VWS V14.00,2013-01-13 16:38:00,
2013-01-13 09:43:00,5.4,1.9,30.35,NE,40,0.0,0.0,85,0.00,,SKC,0.00,VWS V14.00,2013-01-13 16:43:00,
2013-01-13 09:49:00,5.5,2.0,30.34,NE,40,0.0,1.0,85,0.00,,SKC,0.00,VWS V14.00,2013-01-13 16:49:00,
2013-01-13 09:54:00,5.8,2.3,30.34,NE,40,0.0,2.0,85,0.00,,SKC,0.00,VWS V14.00,2013-01-13 16:54:00,
2013-01-13 09:59:00,6.2,2.7,30.34,ENE,67,1.0,2.0,85,0.00,,SKC,0.00,VWS V14.00,2013-01-13 16:59:00,
2013-01-13 10:00:00,6.4,2.6,30.35,SE,141,0.0,2.0,84,0.00,,SKC,0.00,VWS V14.00,2013-01-13 17:00:00,
2013-01-13 10:04:00,6.6,2.8,30.34,SE,141,1.0,4.0,84,0.00,,SKC,0.00,VWS V14.00,2013-01-13 17:04:00,
2013-01-13 10:10:00,7.0,2.9,30.34,SE,141,0.0,4.0,83,0.00,,SKC,0.00,VWS V14.00,2013-01-13 17:10:00,
2013-01-13 10:15:00,7.4,3.3,30.34,SE,141,0.0,4.0,83,0.00,,SKC,0.00,VWS V14.00,2013-01-13 17:15:00,
2013-01-13 10:20:00,7.8,3.5,30.34,SE,141,0.0,4.0,82,0.00,,SKC,0.00,VWS V14.00,2013-01-13 17:20:00,
2013-01-13 10:25:00,8.3,3.7,30.34,SE,141,0.0,4.0,81,0.00,,SKC,0.00,VWS V14.00,2013-01-13 17:25:00,
2013-01-13 10:30:00,8.8,4.2,30.34,SE,141,0.0,4.0,81,0.00,,SKC,0.00,VWS V14.00,2013-01-13 17:30:00,
2013-01-13 10:31:00,8.7,4.1,30.34,SE,141,0.0,4.0,81,0.00,,SKC,0.00,VWS V14.00,2013-01-13 17:31:00,
2013-01-13 10:36:00,9.0,4.1,30.34,SE,141,0.0,0.0,80,0.00,,SKC,0.00,VWS V14.00,2013-01-13 17:36:00,
2013-01-13 10:41:00,9.3,4.4,30.34,SE,141,0.0,0.0,80,0.00,,SKC,0.00,VWS V14.00,2013-01-13 17:41:00,
2013-01-13 10:47:00,9.6,4.4,30.34,SE,141,0.0,1.0,79,0.00,,SKC,0.00,VWS V14.00,2013-01-13 17:47:00,
2013-01-13 10:52:00,9.8,4.3,30.34,SE,141,1.0,4.0,78,0.00,,SKC,0.00,VWS V14.00,2013-01-13 17:52:00,
2013-01-13 11:02:00,10.1,4.6,30.33,SE,141,0.0,0.0,78,0.00,,SKC,0.00,VWS V14.00,2013-01-13 18:02:00,
2013-01-13 11:07:00,10.4,4.9,30.33,SE,141,1.0,2.0,78,0.00,,SKC,0.00,VWS V14.00,2013-01-13 18:07:00,
2013-01-13 11:12:00,10.7,5.2,30.33,SE,141,0.0,2.0,78,0.00,,SKC,0.00,VWS V14.00,2013-01-13 18:12:00,
2013-01-13 11:18:00,11.2,5.4,30.33,SE,141,0.0,4.0,77,0.00,,SKC,0.00,VWS V14.00,2013-01-13 18:18:00,
2013-01-13 11:23:00,11.3,5.2,30.32,SE,141,0.0,4.0,76,0.00,,SKC,0.00,VWS V14.00,2013-01-13 18:23:00,
2013-01-13 11:28:00,11.3,5.5,30.32,SE,141,0.0,4.0,77,0.00,,SKC,0.00,VWS V14.00,2013-01-13 18:28:00,
2013-01-13 11:33:00,11.4,5.3,30.31,South,169,1.0,2.0,76,0.00,,SKC,0.00,VWS V14.00,2013-01-13 18:33:00,
2013-01-13 11:39:00,11.7,5.9,30.31,South,169,1.0,2.0,77,0.00,,SKC,0.00,VWS V14.00,2013-01-13 18:39:00,
2013-01-13 11:44:00,12.1,6.0,30.31,South,169,0.0,2.0,76,0.00,,SKC,0.00,VWS V14.00,2013-01-13 18:44:00,
2013-01-13 11:49:00,12.7,6.3,30.31,South,169,0.0,2.0,75,0.00,,SKC,0.00,VWS V14.00,2013-01-13 18:49:00,
2013-01-13 11:54:00,13.1,6.1,30.30,South,169,0.0,2.0,73,0.00,,SKC,0.00,VWS V14.00,2013-01-13 18:54:00,
2013-01-13 12:00:00,13.3,6.0,30.30,South,169,0.0,2.0,72,0.00,,SKC,0.00,VWS V14.00,2013-01-13 19:00:00,
2013-01-13 12:05:00,13.4,5.8,30.30,South,169,0.0,2.0,71,0.00,,SKC,0.00,VWS V14.00,2013-01-13 19:05:00,
2013-01-13 12:10:00,13.5,5.9,30.30,SSW,200,3.0,3.0,71,0.00,,SKC,0.00,VWS V14.00,2013-01-13 19:10:00,
2013-01-13 12:15:00,13.5,5.6,30.30,SSW,207,1.0,3.0,70,0.00,,SKC,0.00,VWS V14.00,2013-01-13 19:15:00,
2013-01-13 12:21:00,13.7,5.4,30.29,SW,219,0.0,3.0,69,0.00,,SKC,0.00,VWS V14.00,2013-01-13 19:21:00,
2013-01-13 12:26:00,13.8,5.5,30.29,SW,219,0.0,3.0,69,0.00,,SKC,0.00,VWS V14.00,2013-01-13 19:26:00,
2013-01-13 12:31:00,14.0,5.4,30.29,SW,217,2.0,4.0,68,0.00,,SKC,0.00,VWS V14.00,2013-01-13 19:31:00,
2013-01-13 12:36:00,14.1,5.5,30.29,SW,219,0.0,5.0,68,0.00,,SKC,0.00,VWS V14.00,2013-01-13 19:36:00,
2013-01-13 12:41:00,14.1,5.8,30.28,SW,217,2.0,5.0,69,0.00,,SKC,0.00,VWS V14.00,2013-01-13 19:41:00,
2013-01-13 12:47:00,14.3,6.0,30.29,SW,228,2.0,5.0,69,0.00,,SKC,0.00,VWS V14.00,2013-01-13 19:47:00,
2013-01-13 12:52:00,14.4,5.8,30.29,SW,225,1.0,5.0,68,0.00,,SKC,0.00,VWS V14.00,2013-01-13 19:52:00,
2013-01-13 12:57:00,14.4,5.5,30.28,SSW,195,1.0,5.0,67,0.00,,SKC,0.00,VWS V14.00,2013-01-13 19:57:00,
2013-01-13 13:02:00,14.5,5.6,30.28,SSW,207,0.0,1.0,67,0.00,,SKC,0.00,VWS V14.00,2013-01-13 20:02:00,
2013-01-13 13:08:00,14.6,5.7,30.28,SSW,207,2.0,3.0,67,0.00,,SKC,0.00,VWS V14.00,2013-01-13 20:08:00,
2013-01-13 13:13:00,14.9,5.9,30.28,SSW,207,1.0,3.0,67,0.00,,SKC,0.00,VWS V14.00,2013-01-13 20:13:00,
2013-01-13 13:18:00,15.0,5.7,30.28,SW,219,3.0,4.0,66,0.00,,SKC,0.00,VWS V14.00,2013-01-13 20:18:00,
2013-01-13 13:23:00,15.2,5.6,30.28,SW,219,1.0,4.0,65,0.00,,SKC,0.00,VWS V14.00,2013-01-13 20:23:00,
2013-01-13 13:29:00,15.2,5.6,30.28,SW,219,0.0,4.0,65,0.00,,SKC,0.00,VWS V14.00,2013-01-13 20:29:00,
2013-01-13 13:34:00,15.1,5.1,30.28,SSW,195,1.0,4.0,64,0.00,,SKC,0.00,VWS V14.00,2013-01-13 20:34:00,
2013-01-13 13:39:00,15.3,5.3,30.28,SSW,211,0.0,4.0,64,0.00,,SKC,0.00,VWS V14.00,2013-01-13 20:39:00,
2013-01-13 13:45:00,15.1,5.1,30.28,SSW,213,1.0,5.0,64,0.00,,SKC,0.00,VWS V14.00,2013-01-13 20:45:00,
2013-01-13 13:50:00,15.0,5.4,30.28,SW,215,0.0,5.0,65,0.00,,SKC,0.00,VWS V14.00,2013-01-13 20:50:00,
2013-01-13 13:55:00,15.0,5.7,30.29,SW,215,0.0,5.0,66,0.00,,SKC,0.00,VWS V14.00,2013-01-13 20:55:00,
2013-01-13 14:00:00,14.9,5.6,30.29,SW,225,0.0,5.0,66,0.00,,SKC,0.00,VWS V14.00,2013-01-13 21:00:00,
2013-01-13 14:06:00,14.8,5.2,30.29,SSW,202,1.0,5.0,65,0.00,,SKC,0.00,VWS V14.00,2013-01-13 21:06:00,
2013-01-13 14:11:00,14.8,5.2,30.29,SSW,204,0.0,5.0,65,0.00,,SKC,0.00,VWS V14.00,2013-01-13 21:11:00,
2013-01-13 14:16:00,14.9,5.6,30.29,SSW,204,0.0,5.0,66,0.00,,SKC,0.00,VWS V14.00,2013-01-13 21:16:00,
2013-01-13 14:21:00,15.0,5.7,30.30,SSW,211,0.0,5.0,66,0.00,,SKC,0.00,VWS V14.00,2013-01-13 21:21:00,
2013-01-13 14:27:00,14.9,6.3,30.30,SW,219,0.0,5.0,68,0.00,,SKC,0.00,VWS V14.00,2013-01-13 21:27:00,
2013-01-13 14:32:00,14.9,6.6,30.30,SW,228,1.0,5.0,69,0.00,,SKC,0.00,VWS V14.00,2013-01-13 21:32:00,
2013-01-13 14:37:00,14.8,6.5,30.30,SW,230,1.0,5.0,69,0.00,,SKC,0.00,VWS V14.00,2013-01-13 21:37:00,
2013-01-13 14:42:00,14.8,6.5,30.30,SW,232,0.0,5.0,69,0.00,,SKC,0.00,VWS V14.00,2013-01-13 21:42:00,
2013-01-13 14:48:00,15.0,6.7,30.30,SW,219,3.0,5.0,69,0.00,,SKC,0.00,VWS V14.00,2013-01-13 21:48:00,
2013-01-13 14:53:00,15.2,6.6,30.30,SW,219,1.0,5.0,68,0.00,,SKC,0.00,VWS V14.00,2013-01-13 21:53:00,
2013-01-13 14:58:00,15.4,6.4,30.30,SSW,196,0.0,5.0,67,0.00,,SKC,0.00,VWS V14.00,2013-01-13 21:58:00,
2013-01-13 15:03:00,16.0,6.7,30.30,SSW,193,4.0,6.0,66,0.00,,SKC,0.00,VWS V14.00,2013-01-13 22:03:00,
2013-01-13 15:09:00,15.8,5.8,30.31,South,184,3.0,6.0,64,0.00,,SKC,0.00,VWS V14.00,2013-01-13 22:09:00,
2013-01-13 15:14:00,15.4,5.4,30.31,SSW,213,0.0,6.0,64,0.00,,SKC,0.00,VWS V14.00,2013-01-13 22:14:00,
2013-01-13 15:19:00,15.4,5.1,30.31,SSW,202,0.0,6.0,63,0.00,,SKC,0.00,VWS V14.00,2013-01-13 22:19:00,
2013-01-13 15:24:00,15.5,4.8,30.31,South,186,0.0,6.0,62,0.00,,SKC,0.00,VWS V14.00,2013-01-13 22:24:00,
2013-01-13 15:30:00,15.9,5.9,30.31,SW,225,1.0,6.0,64,0.00,,SKC,0.00,VWS V14.00,2013-01-13 22:30:00,
2013-01-13 15:35:00,16.3,5.6,30.31,SW,219,0.0,5.0,62,0.00,,SKC,0.00,VWS V14.00,2013-01-13 22:35:00,
2013-01-13 15:40:00,16.2,5.5,30.32,SW,221,1.0,5.0,62,0.00,,SKC,0.00,VWS V14.00,2013-01-13 22:40:00,
2013-01-13 15:46:00,16.2,5.5,30.32,SW,219,1.0,5.0,62,0.00,,SKC,0.00,VWS V14.00,2013-01-13 22:46:00,
2013-01-13 15:51:00,15.9,5.2,30.32,SW,223,0.0,5.0,62,0.00,,SKC,0.00,VWS V14.00,2013-01-13 22:51:00,
2013-01-13 15:56:00,15.9,5.6,30.32,SSW,209,0.0,5.0,63,0.00,,SKC,0.00,VWS V14.00,2013-01-13 22:56:00,
2013-01-13 16:01:00,16.1,5.4,30.32,WSW,240,0.0,5.0,62,0.00,,SKC,0.00,VWS V14.00,2013-01-13 23:01:00,
2013-01-13 16:06:00,16.3,5.6,30.32,SW,227,0.0,3.0,62,0.00,,SKC,0.00,VWS V14.00,2013-01-13 23:06:00,
2013-01-13 16:12:00,16.2,5.1,30.32,SSW,211,4.0,4.0,61,0.00,,SKC,0.00,VWS V14.00,2013-01-13 23:12:00,
2013-01-13 16:17:00,15.7,5.0,30.33,South,186,1.0,4.0,62,0.00,,SKC,0.00,VWS V14.00,2013-01-13 23:17:00,
2013-01-13 16:22:00,15.3,4.6,30.33,SSE,163,4.0,6.0,62,0.00,,SKC,0.00,VWS V14.00,2013-01-13 23:22:00,
2013-01-13 16:27:00,15.0,4.7,30.33,South,183,0.0,7.0,63,0.00,,SKC,0.00,VWS V14.00,2013-01-13 23:27:00,
2013-01-13 16:33:00,14.9,5.3,30.33,SSW,207,2.0,2.0,65,0.00,,SKC,0.00,VWS V14.00,2013-01-13 23:33:00,
2013-01-13 16:38:00,14.6,5.3,30.33,South,169,1.0,7.0,66,0.00,,SKC,0.00,VWS V14.00,2013-01-13 23:38:00,
2013-01-13 16:43:00,14.3,4.7,30.34,South,184,2.0,7.0,65,0.00,,SKC,0.00,VWS V14.00,2013-01-13 23:43:00,
2013-01-13 16:48:00,14.0,4.8,30.34,SSW,196,3.0,7.0,66,0.00,,SKC,0.00,VWS V14.00,2013-01-13 23:48:00,
2013-01-13 16:54:00,13.8,4.6,30.34,South,180,2.0,7.0,66,0.00,,SKC,0.00,VWS V14.00,2013-01-13 23:54:00,
2013-01-13 16:59:00,13.6,4.0,30.34,SSW,192,3.0,7.0,65,0.00,,SKC,0.00,VWS V14.00,2013-01-13 23:59:00,
2013-01-13 17:04:00,13.3,3.8,30.34,SW,219,1.0,1.0,65,0.00,,SKC,0.00,VWS V14.00,2013-01-14 00:04:00,
2013-01-13 17:10:00,13.0,3.5,30.34,SSW,200,0.0,2.0,65,0.00,,SKC,0.00,VWS V14.00,2013-01-14 00:10:00,
2013-01-13 17:15:00,12.7,3.2,30.35,SSW,210,0.0,2.0,65,0.00,,SKC,0.00,VWS V14.00,2013-01-14 00:15:00,
2013-01-13 17:20:00,12.4,2.6,30.35,South,178,7.0,7.0,64,0.00,,SKC,0.00,VWS V14.00,2013-01-14 00:20:00,
2013-01-13 17:25:00,12.1,1.6,30.35,South,173,7.0,7.0,62,0.00,,SKC,0.00,VWS V14.00,2013-01-14 00:25:00,
2013-01-13 17:30:00,11.9,1.4,30.36,South,173,0.0,8.0,62,0.00,,SKC,0.00,VWS V14.00,2013-01-14 00:30:00,
2013-01-13 17:36:00,11.6,0.8,30.36,SSW,202,1.0,7.0,61,0.00,,SKC,0.00,VWS V14.00,2013-01-14 00:36:00,
2013-01-13 17:41:00,11.3,0.8,30.36,South,169,4.0,7.0,62,0.00,,SKC,0.00,VWS V14.00,2013-01-14 00:41:00,
2013-01-13 17:46:00,11.0,0.2,30.37,South,169,1.0,7.0,61,0.00,,SKC,0.00,VWS V14.00,2013-01-14 00:46:00,
2013-01-13 17:51:00,10.8,0.0,30.37,South,181,0.0,7.0,61,0.00,,SKC,0.00,VWS V14.00,2013-01-14 00:51:00,
2013-01-13 17:57:00,10.5,1.7,30.37,South,181,0.0,7.0,67,0.00,,SKC,0.00,VWS V14.00,2013-01-14 00:57:00,
2013-01-13 18:02:00,10.0,1.6,30.37,South,181,0.0,7.0,68,0.00,,SKC,0.00,VWS V14.00,2013-01-14 01:02:00,
2013-01-13 18:07:00,9.2,1.4,30.38,South,181,0.0,1.0,70,0.00,,SKC,0.00,VWS V14.00,2013-01-14 01:07:00,
2013-01-13 18:12:00,8.8,1.3,30.38,South,181,0.0,1.0,71,0.00,,SKC,0.00,VWS V14.00,2013-01-14 01:12:00,
2013-01-13 18:18:00,8.3,0.9,30.38,South,181,0.0,1.0,71,0.00,,SKC,0.00,VWS V14.00,2013-01-14 01:18:00,
2013-01-13 18:23:00,8.0,1.2,30.39,South,181,0.0,1.0,73,0.00,,SKC,0.00,VWS V14.00,2013-01-14 01:23:00,
2013-01-13 18:28:00,7.3,-0.1,30.39,South,181,0.0,1.0,71,0.00,,SKC,0.00,VWS V14.00,2013-01-14 01:28:00,
2013-01-13 18:33:00,6.8,0.0,30.39,SE,140,0.0,1.0,73,0.00,,SKC,0.00,VWS V14.00,2013-01-14 01:33:00,
2013-01-13 18:39:00,6.3,0.4,30.39,SE,140,0.0,1.0,76,0.00,,SKC,0.00,VWS V14.00,2013-01-14 01:39:00,
2013-01-13 18:44:00,5.8,-0.4,30.40,SE,140,0.0,1.0,75,0.00,,SKC,0.00,VWS V14.00,2013-01-14 01:44:00,
2013-01-13 18:49:00,5.5,-0.4,30.40,SE,140,0.0,1.0,76,0.00,,SKC,0.00,VWS V14.00,2013-01-14 01:49:00,
2013-01-13 18:54:00,5.3,-0.3,30.40,SE,130,0.0,2.0,77,0.00,,SKC,0.00,VWS V14.00,2013-01-14 01:54:00,
2013-01-13 18:59:00,5.2,-0.4,30.40,SE,130,0.0,2.0,77,0.00,,SKC,0.00,VWS V14.00,2013-01-14 01:59:00,
2013-01-13 19:05:00,5.0,-0.9,30.40,SE,130,0.0,0.0,76,0.00,,SKC,0.00,VWS V14.00,2013-01-14 02:05:00,
2013-01-13 19:10:00,4.5,-1.1,30.41,SE,130,0.0,0.0,77,0.00,,SKC,0.00,VWS V14.00,2013-01-14 02:10:00,
2013-01-13 19:15:00,4.2,-1.4,30.41,SE,130,0.0,0.0,77,0.00,,SKC,0.00,VWS V14.00,2013-01-14 02:15:00,
2013-01-13 19:20:00,3.9,-1.7,30.41,SE,130,0.0,0.0,77,0.00,,SKC,0.00,VWS V14.00,2013-01-14 02:20:00,
2013-01-13 19:26:00,3.6,-1.7,30.41,SE,130,0.0,1.0,78,0.00,,SKC,0.00,VWS V14.00,2013-01-14 02:26:00,
2013-01-13 19:31:00,3.2,-2.1,30.41,SE,130,0.0,1.0,78,0.00,,SKC,0.00,VWS V14.00,2013-01-14 02:31:00,
2013-01-13 19:36:00,2.9,-2.1,30.41,SE,130,0.0,0.0,79,0.00,,SKC,0.00,VWS V14.00,2013-01-14 02:36:00,
2013-01-13 19:41:00,2.8,-2.0,30.41,SE,130,0.0,0.0,80,0.00,,SKC,0.00,VWS V14.00,2013-01-14 02:41:00,
2013-01-13 19:47:00,2.5,-2.8,30.41,SE,130,0.0,0.0,78,0.00,,SKC,0.00,VWS V14.00,2013-01-14 02:47:00,
2013-01-13 19:52:00,2.0,-3.0,30.41,SE,130,0.0,0.0,79,0.00,,SKC,0.00,VWS V14.00,2013-01-14 02:52:00,
2013-01-13 19:57:00,1.7,-3.0,30.41,SE,130,0.0,0.0,80,0.00,,SKC,0.00,VWS V14.00,2013-01-14 02:57:00,
2013-01-13 20:02:00,1.7,-2.8,30.41,SE,130,0.0,0.0,81,0.00,,SKC,0.00,VWS V14.00,2013-01-14 03:02:00,
2013-01-13 20:07:00,1.5,-3.0,30.41,SE,130,0.0,0.0,81,0.00,,SKC,0.00,VWS V14.00,2013-01-14 03:07:00,
2013-01-13 20:13:00,1.3,-3.2,30.42,SE,130,0.0,0.0,81,0.00,,SKC,0.00,VWS V14.00,2013-01-14 03:13:00,
2013-01-13 20:18:00,1.2,-3.3,30.41,SE,130,0.0,0.0,81,0.00,,SKC,0.00,VWS V14.00,2013-01-14 03:18:00,
2013-01-13 20:23:00,0.9,-3.5,30.42,SE,130,0.0,0.0,81,0.00,,SKC,0.00,VWS V14.00,2013-01-14 03:23:00,
2013-01-13 20:28:00,0.6,-4.1,30.42,SE,130,0.0,0.0,80,0.00,,SKC,0.00,VWS V14.00,2013-01-14 03:28:00,
2013-01-13 20:33:00,0.1,-4.3,30.42,SE,130,0.0,0.0,81,0.00,,SKC,0.00,VWS V14.00,2013-01-14 03:33:00,
2013-01-13 20:39:00,0.1,-4.2,30.42,SE,130,0.0,0.0,82,0.00,,SKC,0.00,VWS V14.00,2013-01-14 03:39:00,
2013-01-13 20:44:00,-0.2,-4.4,30.42,SE,130,0.0,0.0,82,0.00,,SKC,0.00,VWS V14.00,2013-01-14 03:44:00,
2013-01-13 20:49:00,-0.3,-4.5,30.43,SE,130,0.0,0.0,82,0.00,,SKC,0.00,VWS V14.00,2013-01-14 03:49:00,
2013-01-13 20:54:00,-0.6,-4.8,30.43,SE,130,0.0,0.0,82,0.00,,SKC,0.00,VWS V14.00,2013-01-14 03:54:00,
2013-01-13 21:00:00,-1.0,-5.4,30.42,SE,130,0.0,1.0,81,0.00,,SKC,0.00,VWS V14.00,2013-01-14 04:00:00,
2013-01-13 21:05:00,-1.4,-5.6,30.42,SE,125,0.0,2.0,82,0.00,,SKC,0.00,VWS V14.00,2013-01-14 04:05:00,
2013-01-13 21:10:00,-1.6,-5.7,30.42,SE,125,0.0,2.0,82,0.00,,SKC,0.00,VWS V14.00,2013-01-14 04:10:00,
2013-01-13 21:15:00,-1.9,-6.0,30.43,SE,125,0.0,2.0,82,0.00,,SKC,0.00,VWS V14.00,2013-01-14 04:15:00,
2013-01-13 21:21:00,-2.1,-6.0,30.43,SE,125,0.0,2.0,83,0.00,,SKC,0.00,VWS V14.00,2013-01-14 04:21:00,
2013-01-13 21:26:00,-2.2,-6.1,30.43,SE,125,0.0,2.0,83,0.00,,SKC,0.00,VWS V14.00,2013-01-14 04:26:00,
2013-01-13 21:31:00,-2.2,-6.1,30.43,SE,125,0.0,2.0,83,0.00,,SKC,0.00,VWS V14.00,2013-01-14 04:31:00,
2013-01-13 21:36:00,-2.3,-6.2,30.43,SE,125,0.0,0.0,83,0.00,,SKC,0.00,VWS V14.00,2013-01-14 04:36:00,
2013-01-13 21:41:00,-2.6,-6.7,30.43,SE,125,0.0,0.0,82,0.00,,SKC,0.00,VWS V14.00,2013-01-14 04:41:00,
2013-01-13 21:47:00,-2.7,-6.6,30.44,SE,125,0.0,1.0,83,0.00,,SKC,0.00,VWS V14.00,2013-01-14 04:47:00,
2013-01-13 21:52:00,-2.8,-6.7,30.44,SE,125,0.0,1.0,83,0.00,,SKC,0.00,VWS V14.00,2013-01-14 04:52:00,
2013-01-13 21:57:00,-2.9,-6.8,30.44,SE,125,0.0,1.0,83,0.00,,SKC,0.00,VWS V14.00,2013-01-14 04:57:00,
2013-01-13 22:00:00,-3.0,-6.9,30.44,SE,125,0.0,1.0,83,0.00,,SKC,0.00,VWS V14.00,2013-01-14 05:00:00,
2013-01-13 22:01:00,-3.0,-7.1,30.44,SE,125,0.0,1.0,82,0.00,,SKC,0.00,VWS V14.00,2013-01-14 05:01:00,
2013-01-13 22:02:00,-3.0,-6.9,30.44,SE,125,0.0,0.0,83,0.00,,SKC,0.00,VWS V14.00,2013-01-14 05:02:00,
2013-01-13 22:08:00,-3.1,-7.0,30.44,SE,125,0.0,1.0,83,0.00,,SKC,0.00,VWS V14.00,2013-01-14 05:08:00,
2013-01-13 22:13:00,-3.0,-6.6,30.44,SE,125,0.0,1.0,84,0.00,,SKC,0.00,VWS V14.00,2013-01-14 05:13:00,
2013-01-13 22:18:00,-3.1,-7.0,30.44,SE,125,0.0,1.0,83,0.00,,SKC,0.00,VWS V14.00,2013-01-14 05:18:00,
2013-01-13 22:23:00,-3.3,-7.4,30.44,SE,125,0.0,1.0,82,0.00,,SKC,0.00,VWS V14.00,2013-01-14 05:23:00,
2013-01-13 22:29:00,-3.4,-7.3,30.45,SE,125,0.0,1.0,83,0.00,,SKC,0.00,VWS V14.00,2013-01-14 05:29:00,
2013-01-13 22:34:00,-3.3,-6.9,30.45,SE,125,2.0,2.0,84,0.00,,SKC,0.00,VWS V14.00,2013-01-14 05:34:00,
2013-01-13 22:39:00,-3.5,-7.6,30.45,SE,125,0.0,2.0,82,0.00,,SKC,0.00,VWS V14.00,2013-01-14 05:39:00,
2013-01-13 22:44:00,-3.7,-7.8,30.45,SE,125,0.0,2.0,82,0.00,,SKC,0.00,VWS V14.00,2013-01-14 05:44:00,
2013-01-13 22:50:00,-3.7,-7.6,30.45,SE,125,0.0,2.0,83,0.00,,SKC,0.00,VWS V14.00,2013-01-14 05:50:00,
2013-01-13 22:55:00,-3.5,-7.1,30.45,SE,125,0.0,2.0,84,0.00,,SKC,0.00,VWS V14.00,2013-01-14 05:55:00,
2013-01-13 23:00:00,-3.0,-6.6,30.45,SE,125,0.0,2.0,84,0.00,,SKC,0.00,VWS V14.00,2013-01-14 06:00:00,
2013-01-13 23:06:00,-3.1,-7.0,30.45,SE,125,0.0,1.0,83,0.00,,SKC,0.00,VWS V14.00,2013-01-14 06:06:00,
2013-01-13 23:11:00,-2.8,-6.4,30.45,SE,125,0.0,1.0,84,0.00,,SKC,0.00,VWS V14.00,2013-01-14 06:11:00,
2013-01-13 23:16:00,-2.5,-6.1,30.45,SE,125,0.0,1.0,84,0.00,,SKC,0.00,VWS V14.00,2013-01-14 06:16:00,
2013-01-13 23:21:00,-2.4,-6.3,30.46,SE,125,0.0,1.0,83,0.00,,SKC,0.00,VWS V14.00,2013-01-14 06:21:00,
2013-01-13 23:27:00,-2.5,-6.4,30.45,SE,125,0.0,1.0,83,0.00,,SKC,0.00,VWS V14.00,2013-01-14 06:27:00,
2013-01-13 23:32:00,-2.4,-6.3,30.45,SE,125,0.0,1.0,83,0.00,,SKC,0.00,VWS V14.00,2013-01-14 06:32:00,
2013-01-13 23:37:00,-2.4,-6.3,30.46,SE,125,0.0,0.0,83,0.00,,SKC,0.00,VWS V14.00,2013-01-14 06:37:00,
2013-01-13 23:43:00,-2.3,-6.2,30.45,SE,125,0.0,2.0,83,0.00,,SKC,0.00,VWS V14.00,2013-01-14 06:43:00,
2013-01-13 23:48:00,-2.0,-5.6,30.45,SE,125,0.0,2.0,84,0.00,,SKC,0.00,VWS V14.00,2013-01-14 06:48:00,
2013-01-13 23:53:00,-1.9,-5.5,30.46,SE,125,0.0,2.0,84,0.00,,SKC,0.00,VWS V14.00,2013-01-14 06:53:00,
2013-01-13 23:58:00,-2.1,-6.0,30.46,SE,125,0.0,2.0,83,0.00,,SKC,0.00,VWS V14.00,2013-01-14 06:58:00,